Time;durP1;ratioP1;P1;durP2;ratioP2;P2;SDS_P1;SDS_P2;PMS_P1;PMS_P2;Temp;Humidity;BMP_temperature;BMP_pressure;BME280_temperature;BME280_humidity;BME280_pressure;Samples;Min_cycle;Max_cycle;Signal;HPM_P1;HPM_P2
2023/01/11 00:01:51;;;;;;;3.80;1.25;;;19.20;55.10;;;;;;6323196;28;20481;-64
2023/01/11 00:04:51;;;;;;;1.88;0.98;;;19.20;55.00;;;;;;6322683;28;20028;-64
2023/01/11 00:07:52;;;;;;;1.92;1.05;;;19.20;55.00;;;;;;6323018;28;20108;-64
2023/01/11 00:10:53;;;;;;;1.58;0.75;;;19.20;55.10;;;;;;6322884;28;20020;-64
2023/01/11 00:13:54;;;;;;;3.15;1.00;;;19.20;55.00;;;;;;6322734;28;20024;-64
2023/01/11 00:16:58;;;;;;;1.73;0.90;;;19.20;55.00;;;;;;6322470;28;20028;-64
2023/01/11 00:19:59;;;;;;;2.72;1.00;;;19.20;55.00;;;;;;6323032;28;20032;-64
2023/01/11 00:22:59;;;;;;;3.05;1.00;;;19.20;55.10;;;;;;6322241;28;20040;-64
2023/01/11 00:26:09;;;;;;;2.47;0.98;;;19.20;55.10;;;;;;6304212;28;20028;-64
2023/01/11 00:29:09;;;;;;;2.70;0.80;;;19.20;55.10;;;;;;6322475;28;20035;-63
2023/01/11 00:32:10;;;;;;;1.63;0.85;;;19.20;55.10;;;;;;6304611;28;20025;-64
2023/01/11 00:35:11;;;;;;;2.17;0.90;;;19.20;55.90;;;;;;6321952;28;20041;-64
2023/01/11 00:38:42;;;;;;;2.72;1.17;;;19.20;55.10;;;;;;6322272;28;20068;-63
2023/01/11 00:48:10;;;;;;;2.10;0.90;;;19.20;55.10;;;;;;6321285;28;20463;-64
2023/01/11 00:51:11;;;;;;;2.25;0.90;;;19.20;55.00;;;;;;6303741;28;20089;-64
2023/01/11 00:54:12;;;;;;;2.33;0.85;;;19.20;55.00;;;;;;6321985;28;20021;-64
2023/01/11 00:57:12;;;;;;;2.35;0.95;;;19.20;55.10;;;;;;6321648;28;20020;-63
2023/01/11 01:00:13;;;;;;;2.35;0.90;;;19.20;55.10;;;;;;6303489;28;20024;-64
2023/01/11 01:03:14;;;;;;;3.42;1.00;;;19.20;55.30;;;;;;6321508;28;20580;-64
2023/01/11 01:06:15;;;;;;;2.03;0.95;;;19.20;55.00;;;;;;6302850;28;20024;-63
2023/01/11 01:09:15;;;;;;;2.15;0.90;;;19.20;55.20;;;;;;6321435;28;20631;-64
2023/01/11 01:15:35;;;;;;;1.75;0.90;;;19.20;54.90;;;;;;6321333;28;20024;-63
2023/01/11 01:18:36;;;;;;;1.67;0.88;;;19.20;55.30;;;;;;6321104;28;20529;-64
2023/01/11 01:21:37;;;;;;;2.17;0.95;;;19.20;55.10;;;;;;6321084;28;20028;-63
2023/01/11 01:24:37;;;;;;;1.77;0.90;;;19.20;55.20;;;;;;6320705;28;20044;-63
2023/01/11 01:27:38;;;;;;;1.92;0.80;;;19.10;55.10;;;;;;6302484;28;20127;-64
2023/01/11 01:30:40;;;;;;;2.13;0.93;;;19.20;55.20;;;;;;6321132;28;20016;-64
2023/01/11 01:33:40;;;;;;;2.78;0.82;;;19.20;55.20;;;;;;6320667;28;20103;-64
2023/01/11 01:36:41;;;;;;;2.38;0.80;;;19.20;55.20;;;;;;6320889;28;20028;-63
2023/01/11 01:39:42;;;;;;;2.03;0.80;;;19.20;55.20;;;;;;6320684;28;20039;-64
2023/01/11 01:42:43;;;;;;;2.95;0.93;;;19.20;55.20;;;;;;6302813;28;20055;-64
2023/01/11 01:45:44;;;;;;;1.30;0.80;;;19.10;55.60;;;;;;6320281;28;20047;-64
2023/01/11 01:48:54;;;;;;;2.45;1.00;;;19.20;55.10;;;;;;6320606;28;20573;-64
2023/01/11 01:51:56;;;;;;;1.42;0.80;;;19.20;55.20;;;;;;6320374;28;20745;-64
2023/01/11 01:55:03;;;;;;;2.72;1.10;;;19.20;55.10;;;;;;6302086;28;20035;-63
2023/01/11 01:58:08;;;;;;;1.98;1.00;;;19.10;55.10;;;;;;6301739;28;20024;-64
2023/01/11 02:04:33;;;;;;;1.70;0.80;;;19.20;55.10;;;;;;6320629;28;20408;-64
2023/01/11 02:07:38;;;;;;;1.95;0.93;;;19.20;55.10;;;;;;6301518;28;20078;-64
2023/01/11 02:10:39;;;;;;;3.47;0.85;;;19.20;55.10;;;;;;6320181;28;20035;-64
2023/01/11 02:13:44;;;;;;;2.65;0.95;;;19.20;55.10;;;;;;6319841;28;20477;-64
2023/01/11 02:16:45;;;;;;;1.98;0.80;;;19.20;55.10;;;;;;6319707;28;20028;-63
2023/01/11 02:20:00;;;;;;;3.53;1.05;;;19.20;55.10;;;;;;6319783;28;20035;-64
2023/01/11 02:23:37;;;;;;;1.98;0.68;;;19.20;55.00;;;;;;6319542;28;20096;-64
2023/01/11 02:26:58;;;;;;;1.98;0.70;;;19.20;55.10;;;;;;6319220;28;20040;-64
2023/01/11 02:30:42;;;;;;;2.03;1.00;;;19.20;55.10;;;;;;6319563;28;20096;-63
2023/01/11 02:34:01;;;;;;;2.13;0.90;;;19.20;55.20;;;;;;6266278;28;20033;-64
2023/01/11 02:37:25;;;;;;;3.25;1.00;;;19.20;55.20;;;;;;6270526;28;20102;-64
2023/01/11 02:40:51;;;;;;;2.22;0.88;;;19.20;55.00;;;;;;6293671;28;20449;-64
2023/01/11 02:47:24;;;;;;;0.93;0.57;;;19.20;55.20;;;;;;6319011;28;20028;-64
2023/01/11 02:50:57;;;;;;;1.67;0.63;;;19.20;55.10;;;;;;6300775;28;20534;-64
2023/01/11 02:54:04;;;;;;;2.55;0.80;;;19.20;55.10;;;;;;6300908;28;20073;-63
2023/01/11 02:57:07;;;;;;;2.20;0.80;;;19.20;55.20;;;;;;6318848;28;20564;-64
2023/01/11 03:00:10;;;;;;;1.20;0.88;;;19.20;55.10;;;;;;6318696;28;20444;-64
2023/01/11 03:03:29;;;;;;;0.95;0.60;;;19.10;55.00;;;;;;6318800;28;20483;-64
2023/01/11 03:06:34;;;;;;;2.03;0.77;;;19.20;55.10;;;;;;6318356;28;20546;-64
2023/01/11 03:10:07;;;;;;;3.10;0.90;;;19.20;55.10;;;;;;6318683;28;20031;-63
2023/01/11 03:13:32;;;;;;;2.97;1.10;;;19.20;55.10;;;;;;6297692;28;20028;-64
2023/01/11 03:16:38;;;;;;;2.30;0.68;;;19.20;55.00;;;;;;6318891;28;20020;-64
2023/01/11 03:19:48;;;;;;;2.42;0.90;;;19.20;55.10;;;;;;6318754;28;20024;-64
2023/01/11 03:22:49;;;;;;;1.33;0.60;;;19.20;55.10;;;;;;6318589;28;20044;-64
2023/01/11 03:26:10;;;;;;;2.10;0.82;;;19.20;55.10;;;;;;6318718;28;20032;-64
2023/01/11 03:29:37;;;;;;;1.45;0.70;;;19.20;55.10;;;;;;6318586;28;20043;-64
2023/01/11 03:32:55;;;;;;;1.75;0.68;;;19.20;55.10;;;;;;6318446;28;20119;-64
2023/01/11 03:36:22;;;;;;;2.67;0.93;;;19.20;55.20;;;;;;6318291;28;20548;-63
2023/01/11 03:39:45;;;;;;;1.70;0.70;;;19.20;55.10;;;;;;6314604;28;20501;-64
2023/01/11 03:43:10;;;;;;;1.50;0.70;;;19.20;55.10;;;;;;6318426;28;20023;-64
2023/01/11 03:46:43;;;;;;;2.95;0.80;;;19.20;55.10;;;;;;6318545;28;20012;-64
2023/01/11 03:50:05;;;;;;;3.40;0.90;;;19.20;55.10;;;;;;6288132;28;20036;-64
2023/01/11 03:53:07;;;;;;;1.52;0.75;;;19.20;55.00;;;;;;6299871;28;20030;-64
2023/01/11 03:56:11;;;;;;;0.70;0.43;;;19.20;55.10;;;;;;6318429;28;20020;-64
2023/01/11 03:59:12;;;;;;;1.02;0.60;;;19.10;54.90;;;;;;6318401;28;20488;-64
2023/01/11 04:02:18;;;;;;;1.13;0.80;;;19.20;55.00;;;;;;6318310;28;20062;-64
2023/01/11 04:05:19;;;;;;;8.48;0.98;;;19.20;55.00;;;;;;6317857;28;20043;-64
2023/01/11 04:08:20;;;;;;;1.08;0.60;;;19.10;54.90;;;;;;6318144;28;20404;-64
2023/01/11 04:11:20;;;;;;;1.58;0.70;;;19.10;54.90;;;;;;6299661;28;20021;-64
2023/01/11 04:14:21;;;;;;;1.45;0.63;;;19.10;54.90;;;;;;6317813;28;20017;-64
2023/01/11 04:17:22;;;;;;;2.13;0.77;;;19.10;54.90;;;;;;6300023;28;20139;-64
2023/01/11 04:20:23;;;;;;;3.10;1.13;;;19.20;55.00;;;;;;6321562;28;20020;-63
2023/01/11 04:23:24;;;;;;;1.73;0.70;;;19.20;55.00;;;;;;6322334;28;20063;-64
2023/01/11 04:26:24;;;;;;;2.15;0.90;;;19.20;55.00;;;;;;6322270;28;20068;-64
2023/01/11 04:29:25;;;;;;;4.00;1.10;;;19.10;54.90;;;;;;6322474;28;20024;-64
2023/01/11 04:32:25;;;;;;;2.83;0.90;;;19.20;55.00;;;;;;6322389;28;20069;-64
2023/01/11 04:35:27;;;;;;;1.90;0.80;;;19.20;54.90;;;;;;6322197;28;20027;-64
2023/01/11 04:38:28;;;;;;;1.55;0.77;;;19.20;55.00;;;;;;6322049;28;20028;-64
2023/01/11 04:44:55;;;;;;;1.15;0.75;;;19.20;55.00;;;;;;6297788;28;20584;-64
2023/01/11 04:47:56;;;;;;;1.77;0.88;;;19.10;54.90;;;;;;6322112;28;20027;-63
2023/01/11 04:50:57;;;;;;;2.88;0.73;;;19.20;55.00;;;;;;6321526;28;20376;-64
2023/01/11 04:53:58;;;;;;;1.77;0.70;;;19.10;54.90;;;;;;6321673;28;20063;-64
2023/01/11 04:56:58;;;;;;;1.52;0.70;;;19.20;55.00;;;;;;6303453;28;20381;-63
2023/01/11 05:00:36;;;;;;;1.73;0.70;;;19.10;54.90;;;;;;6321425;28;20095;-64
2023/01/11 05:03:37;;;;;;;1.77;0.70;;;19.20;55.00;;;;;;6321379;28;20107;-64
2023/01/11 05:06:37;;;;;;;1.27;0.50;;;19.20;55.00;;;;;;6321333;28;20030;-64
2023/01/11 05:09:39;;;;;;;1.27;0.70;;;19.10;54.90;;;;;;6303453;28;20028;-64
2023/01/11 05:12:40;;;;;;;1.48;0.80;;;19.20;55.00;;;;;;6321310;28;20520;-64
2023/01/11 05:15:41;;;;;;;1.08;0.63;;;19.20;54.90;;;;;;6302992;28;20025;-64
2023/01/11 05:18:46;;;;;;;3.25;1.00;;;19.10;54.90;;;;;;6321197;28;20028;-64
2023/01/11 05:21:47;;;;;;;1.98;0.68;;;19.20;54.90;;;;;;6321004;28;20020;-64
2023/01/11 05:24:47;;;;;;;0.73;0.50;;;19.10;54.90;;;;;;6320754;28;20121;-64
2023/01/11 05:27:48;;;;;;;1.20;0.60;;;19.20;54.90;;;;;;6320478;28;20031;-64
2023/01/11 05:30:52;;;;;;;0.98;0.70;;;19.10;54.80;;;;;;6320447;28;20064;-64
2023/01/11 05:33:55;;;;;;;1.30;0.70;;;19.20;55.00;;;;;;6320581;28;20048;-64
2023/01/11 05:36:56;;;;;;;1.15;0.60;;;19.10;54.90;;;;;;6302575;28;20032;-64
2023/01/11 05:39:56;;;;;;;2.78;0.77;;;19.10;54.80;;;;;;6320631;28;20024;-64
2023/01/11 05:42:57;;;;;;;1.23;0.65;;;19.20;54.90;;;;;;6320765;28;20357;-64
2023/01/11 05:45:59;;;;;;;1.60;0.75;;;19.10;54.90;;;;;;6320413;28;20477;-64
2023/01/11 05:49:01;;;;;;;1.85;0.60;;;19.20;55.00;;;;;;6320725;28;20024;-64
2023/01/11 05:52:02;;;;;;;1.48;0.65;;;19.20;55.00;;;;;;6320181;28;20024;-64
2023/01/11 05:55:03;;;;;;;0.77;0.40;;;19.20;54.90;;;;;;6320332;28;20047;-64
2023/01/11 05:58:04;;;;;;;1.27;0.60;;;19.10;54.90;;;;;;6320196;28;20032;-64
2023/01/11 06:01:05;;;;;;;1.70;0.63;;;19.10;54.90;;;;;;6320127;28;20232;-64
2023/01/11 06:04:07;;;;;;;0.93;0.52;;;19.10;54.90;;;;;;6319895;28;20107;-64
2023/01/11 06:07:08;;;;;;;1.67;0.60;;;19.20;55.00;;;;;;6301838;28;20024;-64
2023/01/11 06:10:09;;;;;;;1.27;0.65;;;19.10;54.90;;;;;;6319989;28;20093;-64
2023/01/11 06:13:25;;;;;;;1.23;0.73;;;19.20;55.00;;;;;;6319759;28;20178;-64
2023/01/11 06:16:26;;;;;;;0.80;0.50;;;19.10;54.90;;;;;;6319978;28;20024;-64
2023/01/11 06:19:27;;;;;;;1.35;0.50;;;19.10;54.90;;;;;;6319792;28;20028;-64
2023/01/11 06:22:27;;;;;;;1.40;0.80;;;19.20;55.00;;;;;;6320078;28;20400;-64
2023/01/11 06:25:29;;;;;;;0.75;0.60;;;19.10;54.90;;;;;;6333175;28;20632;-64
2023/01/11 06:28:30;;;;;;;1.35;0.65;;;19.20;55.10;;;;;;6344804;28;20028;-64
2023/01/11 06:31:30;;;;;;;1.52;0.70;;;19.10;55.00;;;;;;6345418;28;20372;-64
2023/01/11 06:34:31;;;;;;;0.90;0.50;;;19.20;55.10;;;;;;6344960;28;20515;-64
2023/01/11 06:37:31;;;;;;;1.88;0.40;;;19.20;55.00;;;;;;6334212;28;20051;-64
2023/01/11 06:40:32;;;;;;;0.40;0.40;;;19.20;55.10;;;;;;6301082;28;20081;-64
2023/01/11 06:43:34;;;;;;;1.42;0.55;;;19.20;55.10;;;;;;6318794;28;20047;-64
2023/01/11 06:46:35;;;;;;;1.02;0.52;;;19.10;55.00;;;;;;6319302;28;20059;-63
2023/01/11 06:49:35;;;;;;;1.38;0.68;;;19.10;54.90;;;;;;6300899;28;20350;-63
2023/01/11 06:52:36;;;;;;;1.25;0.55;;;19.10;55.00;;;;;;6319146;28;20020;-64
2023/01/11 06:55:37;;;;;;;1.23;0.60;;;19.20;55.10;;;;;;6318805;28;20032;-64
2023/01/11 06:58:38;;;;;;;0.77;0.50;;;19.10;54.90;;;;;;6319052;28;20086;-64
2023/01/11 07:01:39;;;;;;;1.33;0.80;;;19.20;55.10;;;;;;6321067;28;20027;-64
2023/01/11 07:04:39;;;;;;;1.10;0.50;;;19.20;55.00;;;;;;6321159;28;20024;-64
2023/01/11 07:07:41;;;;;;;1.67;0.70;;;19.20;55.00;;;;;;6320991;28;20485;-64
2023/01/11 07:10:42;;;;;;;0.88;0.40;;;19.20;55.10;;;;;;6321381;28;20076;-64
2023/01/11 07:13:43;;;;;;;1.25;0.55;;;19.20;55.10;;;;;;6321096;28;20358;-64
2023/01/11 07:16:44;;;;;;;1.13;0.55;;;19.10;55.00;;;;;;6303000;28;20024;-63
2023/01/11 07:19:45;;;;;;;1.15;0.60;;;19.20;55.00;;;;;;6321021;28;20032;-64
2023/01/11 07:22:45;;;;;;;0.60;0.38;;;19.20;55.10;;;;;;6302819;28;20047;-64
2023/01/11 07:25:47;;;;;;;0.60;0.50;;;19.20;55.10;;;;;;6320699;28;20046;-64
2023/01/11 07:28:48;;;;;;;0.98;0.57;;;19.20;55.10;;;;;;6320730;28;20028;-64
2023/01/11 07:31:49;;;;;;;1.15;0.60;;;19.10;54.90;;;;;;6320926;28;20381;-64
2023/01/11 07:34:50;;;;;;;1.38;0.60;;;19.20;55.00;;;;;;6302364;28;20051;-65
2023/01/11 07:37:50;;;;;;;0.60;0.50;;;19.20;55.00;;;;;;6304522;28;20094;-65
2023/01/11 07:40:51;;;;;;;1.63;0.70;;;19.20;55.70;;;;;;6318309;28;20484;-66
2023/01/11 07:43:52;;;;;;;1.10;0.43;;;19.20;55.00;;;;;;6330320;28;20023;-66
2023/01/11 07:46:53;;;;;;;3.38;0.60;;;19.20;55.00;;;;;;6320111;28;20039;-64
2023/01/11 07:49:53;;;;;;;1.55;0.65;;;19.20;54.90;;;;;;6319534;28;20425;-64
2023/01/11 07:52:55;;;;;;;3.33;0.52;;;19.20;54.90;;;;;;6320112;28;20020;-64
2023/01/11 07:55:56;;;;;;;1.20;0.40;;;19.20;54.80;;;;;;6324170;28;20020;-65
2023/01/11 07:58:57;;;;;;;1.60;0.60;;;19.20;54.90;;;;;;6333480;28;20480;-64
2023/01/11 08:01:59;;;;;;;0.85;0.50;;;19.20;54.90;;;;;;6349939;28;20365;-64
2023/01/11 08:04:59;;;;;;;3.03;0.70;;;19.20;54.90;;;;;;6331735;28;20027;-65
2023/01/11 08:08:00;;;;;;;0.80;0.57;;;19.20;54.90;;;;;;6324252;28;20059;-65
2023/01/11 08:14:38;;;;;;;0.95;0.63;;;19.20;55.00;;;;;;6324314;28;20469;-64
2023/01/11 08:17:39;;;;;;;1.45;0.52;;;19.20;55.00;;;;;;6310762;28;20106;-65
2023/01/11 08:20:40;;;;;;;1.35;0.57;;;19.20;55.00;;;;;;6345558;28;20027;-65
2023/01/11 08:23:41;;;;;;;2.20;0.70;;;19.20;55.00;;;;;;6324813;28;20075;-65
2023/01/11 08:26:41;;;;;;;2.15;0.88;;;19.20;55.00;;;;;;6324295;28;20036;-65
2023/01/11 08:29:45;;;;;;;1.55;0.70;;;19.20;55.10;;;;;;6324739;28;20020;-65
2023/01/11 08:32:45;;;;;;;1.88;0.70;;;19.20;55.00;;;;;;6324317;28;20056;-65
2023/01/11 08:35:46;;;;;;;2.22;0.70;;;19.20;54.90;;;;;;6306336;28;20030;-65
2023/01/11 08:38:47;;;;;;;2.85;0.73;;;19.20;55.00;;;;;;6324322;28;20024;-65
2023/01/11 08:41:48;;;;;;;1.67;0.50;;;19.20;54.90;;;;;;6324533;28;20477;-65
2023/01/11 08:44:48;;;;;;;0.52;0.52;;;19.20;54.90;;;;;;6324195;28;20020;-65
2023/01/11 08:47:50;;;;;;;1.95;0.68;;;19.20;55.00;;;;;;6324359;28;20330;-65
2023/01/11 08:50:51;;;;;;;1.92;0.75;;;19.20;55.00;;;;;;6323775;28;20012;-65
2023/01/11 08:53:52;;;;;;;1.85;0.70;;;19.20;55.00;;;;;;6305820;28;20031;-65
2023/01/11 08:56:54;;;;;;;2.95;0.77;;;19.20;54.90;;;;;;6323976;28;20071;-65
2023/01/11 08:59:55;;;;;;;1.67;0.60;;;19.20;54.90;;;;;;6323986;28;20028;-65
2023/01/11 09:02:58;;;;;;;1.65;0.57;;;19.20;54.80;;;;;;6323920;28;20481;-65
2023/01/11 09:05:59;;;;;;;1.15;0.65;;;19.20;54.80;;;;;;6323063;28;20064;-65
2023/01/11 09:09:00;;;;;;;2.95;0.70;;;19.20;55.00;;;;;;6323875;28;20473;-65
2023/01/11 09:12:01;;;;;;;1.73;0.55;;;19.20;54.90;;;;;;6323658;28;20081;-65
2023/01/11 09:15:04;;;;;;;1.10;0.70;;;19.20;54.90;;;;;;6323491;28;20443;-65
2023/01/11 09:18:05;;;;;;;1.27;0.60;;;19.20;54.90;;;;;;6323556;28;20500;-64
2023/01/11 09:21:05;;;;;;;1.55;0.65;;;19.20;54.90;;;;;;6323687;28;20020;-65
2023/01/11 09:24:06;;;;;;;1.23;0.60;;;19.20;54.90;;;;;;6323067;28;20051;-65
2023/01/11 09:27:07;;;;;;;1.30;0.65;;;19.20;54.90;;;;;;6305011;28;20067;-65
2023/01/11 09:30:09;;;;;;;1.88;0.60;;;19.20;54.90;;;;;;6323153;28;20031;-65
2023/01/11 09:33:10;;;;;;;0.93;0.60;;;19.20;54.90;;;;;;6323280;28;20358;-65
2023/01/11 09:36:12;;;;;;;1.00;0.50;;;19.20;54.80;;;;;;6304824;28;20388;-65
2023/01/11 09:39:17;;;;;;;0.95;0.40;;;19.20;54.80;;;;;;6304727;28;20024;-65
2023/01/11 09:42:38;;;;;;;0.80;0.50;;;19.20;54.90;;;;;;6304429;28;20051;-65
2023/01/11 09:45:45;;;;;;;1.10;0.52;;;19.20;54.90;;;;;;6304706;28;20031;-65
2023/01/11 09:48:57;;;;;;;3.17;0.65;;;19.20;54.90;;;;;;6322605;28;20027;-65
2023/01/11 09:52:12;;;;;;;1.33;0.60;;;19.20;54.90;;;;;;6322549;28;20020;-65
2023/01/11 09:55:21;;;;;;;1.88;0.70;;;19.20;54.90;;;;;;6322712;28;20016;-64
2023/01/11 09:58:45;;;;;;;2.97;1.17;;;19.20;55.00;;;;;;6322475;28;20024;-66
2023/01/11 10:01:49;;;;;;;0.88;0.40;;;19.20;54.90;;;;;;6322624;28;20028;-65
2023/01/11 10:04:59;;;;;;;1.65;0.60;;;19.20;55.00;;;;;;6304253;28;20020;-65
2023/01/11 10:08:36;;;;;;;0.85;0.45;;;19.20;55.00;;;;;;6321938;28;20067;-65
2023/01/11 10:12:05;;;;;;;1.13;0.50;;;19.20;55.00;;;;;;6322357;28;20042;-65
2023/01/11 10:15:31;;;;;;;0.70;0.50;;;19.20;55.00;;;;;;6303355;28;20556;-65
2023/01/11 10:18:43;;;;;;;;;;;19.20;54.90;;;;;;6303903;28;20058;-65
2023/01/11 10:21:53;;;;;;;1.00;0.55;;;19.20;54.90;;;;;;6321877;28;19911;-65
2023/01/11 10:25:00;;;;;;;1.05;0.60;;;19.20;54.90;;;;;;6321730;28;20489;-65
2023/01/11 10:28:12;;;;;;;0.73;0.50;;;19.20;54.90;;;;;;6321408;28;20400;-65
2023/01/11 10:35:16;;;;;;;0.75;0.50;;;19.20;55.00;;;;;;6290481;28;20070;-65
2023/01/11 10:42:10;;;;;;;1.50;0.50;;;19.20;55.00;;;;;;6321927;28;20024;-65
2023/01/11 10:45:43;;;;;;;0.75;0.38;;;19.20;55.00;;;;;;6321567;28;20028;-65
2023/01/11 10:48:45;;;;;;;1.38;0.50;;;19.20;55.00;;;;;;6321388;28;20059;-65
2023/01/11 10:51:48;;;;;;;0.70;0.40;;;19.20;55.00;;;;;;6321287;28;20028;-65
2023/01/11 10:54:56;;;;;;;1.05;0.40;;;19.20;55.00;;;;;;6320916;28;20408;-65
2023/01/11 10:58:24;;;;;;;1.38;0.40;;;19.20;55.00;;;;;;6319557;28;20028;-65
2023/01/11 11:01:53;;;;;;;0.47;0.45;;;19.20;55.10;;;;;;6321208;28;20525;-65
2023/01/11 11:05:10;;;;;;;0.80;0.55;;;19.20;55.00;;;;;;6320875;28;20496;-65
2023/01/11 11:08:14;;;;;;;0.85;0.40;;;19.20;55.00;;;;;;6303031;28;20028;-65
2023/01/11 11:11:25;;;;;;;1.20;0.57;;;19.20;55.00;;;;;;6321150;28;20591;-65
2023/01/11 11:14:48;;;;;;;0.55;0.40;;;19.20;55.00;;;;;;6321161;28;20024;-65
2023/01/11 11:17:52;;;;;;;0.98;0.40;;;19.20;55.00;;;;;;6321020;28;20020;-65
2023/01/11 11:21:09;;;;;;;0.50;0.40;;;19.20;55.00;;;;;;6320975;28;20028;-65
2023/01/11 11:24:22;;;;;;;1.30;0.52;;;19.20;55.00;;;;;;6320648;28;20040;-65
2023/01/11 11:27:29;;;;;;;0.85;0.40;;;19.20;55.10;;;;;;6322060;28;20028;-65
2023/01/11 11:30:40;;;;;;;2.47;0.52;;;19.20;55.10;;;;;;6307858;28;20078;-64
2023/01/11 11:33:45;;;;;;;0.60;0.50;;;19.20;55.10;;;;;;6326092;28;20028;-65
2023/01/11 11:36:49;;;;;;;1.33;0.50;;;19.20;55.10;;;;;;6326061;28;20553;-65
2023/01/11 11:39:50;;;;;;;0.43;0.35;;;19.20;55.10;;;;;;6325862;28;20028;-65
2023/01/11 11:43:07;;;;;;;1.08;0.50;;;19.20;55.10;;;;;;6326321;28;20495;-65
2023/01/11 11:46:14;;;;;;;1.35;0.50;;;19.20;55.10;;;;;;6325615;28;20020;-64
2023/01/11 11:49:16;;;;;;;0.63;0.50;;;19.20;55.10;;;;;;6325740;28;20267;-64
2023/01/11 11:52:17;;;;;;;0.30;0.20;;;19.20;55.10;;;;;;6325623;28;20024;-65
2023/01/11 11:55:27;;;;;;;0.88;0.40;;;19.20;55.00;;;;;;6307321;28;20024;-65
2023/01/11 11:58:28;;;;;;;1.27;0.47;;;19.20;55.10;;;;;;6306989;28;20020;-65
2023/01/11 12:01:33;;;;;;;1.35;0.60;;;19.20;55.10;;;;;;6325418;28;20030;-65
2023/01/11 12:04:47;;;;;;;0.75;0.40;;;19.30;55.10;;;;;;6325349;28;20508;-65
2023/01/11 12:07:50;;;;;;;2.38;0.40;;;19.20;55.10;;;;;;6325136;28;20028;-65
2023/01/11 12:10:57;;;;;;;0.88;0.47;;;19.20;55.10;;;;;;6325300;28;20024;-65
2023/01/11 12:14:13;;;;;;;1.02;0.50;;;19.20;55.10;;;;;;6325074;28;20540;-65
2023/01/11 12:17:24;;;;;;;;;;;19.20;55.10;;;;;;6325402;28;20020;-64
2023/01/11 12:20:37;;;;;;;0.40;0.40;;;19.20;55.10;;;;;;6325223;28;19908;-65
2023/01/11 12:23:37;;;;;;;0.80;0.50;;;19.20;55.10;;;;;;6324671;28;20055;-65
2023/01/11 12:27:04;;;;;;;0.60;0.50;;;19.20;55.10;;;;;;6324552;28;20024;-65
2023/01/11 12:30:21;;;;;;;0.35;0.32;;;19.20;55.10;;;;;;6324667;28;20016;-64
2023/01/11 12:33:58;;;;;;;0.50;0.30;;;19.20;55.10;;;;;;6306397;28;20583;-65
2023/01/11 12:37:08;;;;;;;0.50;0.30;;;19.20;55.10;;;;;;6306733;28;20031;-65
2023/01/11 12:40:20;;;;;;;0.30;0.30;;;19.20;55.10;;;;;;6323354;28;20016;-65
2023/01/11 12:43:55;;;;;;;0.50;0.40;;;19.20;55.10;;;;;;6324456;28;20020;-65
2023/01/11 12:46:56;;;;;;;0.80;0.50;;;19.30;55.30;;;;;;6324337;28;20041;-65
2023/01/11 12:50:09;;;;;;;0.47;0.40;;;19.20;55.10;;;;;;6324391;28;20028;-65
2023/01/11 12:53:37;;;;;;;1.02;0.60;;;19.20;55.20;;;;;;6324059;28;20376;-65
2023/01/11 12:57:19;;;;;;;1.05;0.45;;;19.20;55.10;;;;;;6324058;28;20027;-65
2023/01/11 13:00:30;;;;;;;0.82;0.50;;;19.20;55.80;;;;;;6271681;28;20620;-65
2023/01/11 13:04:04;;;;;;;0.57;0.40;;;19.20;55.10;;;;;;6324035;28;20412;-65
2023/01/11 13:07:47;;;;;;;0.40;0.30;;;19.20;55.20;;;;;;6323796;28;20165;-65
2023/01/11 13:11:00;;;;;;;0.30;0.30;;;19.30;55.30;;;;;;6323753;28;20103;-65
2023/01/11 13:14:30;;;;;;;0.63;0.50;;;19.30;55.30;;;;;;6323648;28;20043;-65
2023/01/11 13:17:40;;;;;;;0.75;0.50;;;19.20;55.20;;;;;;6307587;28;20452;-65
2023/01/11 13:21:01;;;;;;;0.40;0.40;;;19.20;55.90;;;;;;6323344;28;20028;-65
2023/01/11 13:24:09;;;;;;;0.57;0.32;;;19.20;55.20;;;;;;6305190;28;20044;-65
2023/01/11 13:27:16;;;;;;;0.70;0.40;;;19.20;55.20;;;;;;6323421;28;20469;-65
2023/01/11 13:30:19;;;;;;;0.32;0.30;;;19.20;55.20;;;;;;6323262;28;20031;-64
2023/01/11 13:33:25;;;;;;;0.75;0.40;;;19.30;55.30;;;;;;6323502;28;20447;-65
2023/01/11 13:36:35;;;;;;;0.50;0.40;;;19.20;55.20;;;;;;6323175;28;20024;-65
2023/01/11 13:39:54;;;;;;;1.17;0.50;;;19.20;55.20;;;;;;6323280;28;20028;-65
2023/01/11 13:43:14;;;;;;;0.65;0.40;;;19.20;55.30;;;;;;6322927;28;20038;-65
2023/01/11 13:46:40;;;;;;;0.40;0.38;;;19.20;55.20;;;;;;6322779;28;20027;-65
2023/01/11 13:49:48;;;;;;;0.40;0.30;;;19.20;55.20;;;;;;6308284;28;20071;-65
2023/01/11 13:53:00;;;;;;;0.57;0.40;;;19.20;55.20;;;;;;6322820;28;20031;-64
2023/01/11 13:56:10;;;;;;;0.20;0.20;;;19.20;55.20;;;;;;6322374;28;20021;-65
2023/01/11 13:59:24;;;;;;;0.40;0.30;;;19.30;55.30;;;;;;6322322;28;20027;-64
2023/01/11 14:02:52;;;;;;;0.85;0.43;;;19.20;55.20;;;;;;6322629;28;20027;-65
2023/01/11 14:06:20;;;;;;;0.43;0.25;;;19.20;55.20;;;;;;6304314;28;20028;-65
2023/01/11 14:09:42;;;;;;;0.30;0.30;;;19.20;55.30;;;;;;6322343;28;20035;-65
2023/01/11 14:12:49;;;;;;;0.30;0.30;;;19.20;55.30;;;;;;6322375;28;20035;-65
2023/01/11 14:16:02;;;;;;;0.50;0.30;;;19.30;55.40;;;;;;6322175;28;20024;-64
2023/01/11 14:19:08;;;;;;;0.30;0.20;;;19.20;55.20;;;;;;6322240;28;20074;-65
2023/01/11 14:22:40;;;;;;;0.52;0.30;;;19.30;55.30;;;;;;6321686;28;20630;-65
2023/01/11 14:26:09;;;;;;;0.22;0.22;;;19.20;55.20;;;;;;6321583;28;20028;-65
2023/01/11 14:29:38;;;;;;;0.43;0.32;;;19.20;55.30;;;;;;6297830;28;20036;-65
2023/01/11 14:33:02;;;;;;;1.85;0.70;;;19.20;55.30;;;;;;6296590;28;20031;-65
2023/01/11 14:36:30;;;;;;;0.43;0.40;;;19.20;55.30;;;;;;6296792;28;20031;-64
2023/01/11 14:39:51;;;;;;;0.32;0.30;;;19.20;55.30;;;;;;6296525;28;20020;-64
2023/01/11 14:43:40;;;;;;;0.90;0.50;;;19.20;56.00;;;;;;6278811;28;20024;-64
2023/01/11 14:47:08;;;;;;;0.30;0.30;;;19.20;55.20;;;;;;6287453;28;20037;-67
2023/01/11 14:50:20;;;;;;;0.60;0.43;;;19.30;55.50;;;;;;6296184;28;20095;-64
2023/01/11 14:53:34;;;;;;;0.38;0.30;;;19.30;55.40;;;;;;6278164;28;20333;-64
2023/01/11 14:56:35;;;;;;;0.50;0.40;;;19.30;55.50;;;;;;6296537;28;20027;-64
2023/01/11 14:59:38;;;;;;;0.40;0.25;;;19.20;55.30;;;;;;6278214;28;20036;-64
2023/01/11 15:02:39;;;;;;;0.40;0.35;;;19.30;55.40;;;;;;6295441;28;20215;-64
2023/01/11 15:06:09;;;;;;;0.65;0.35;;;19.20;55.30;;;;;;6303780;28;20024;-64
2023/01/11 15:09:43;;;;;;;0.45;0.30;;;19.30;55.40;;;;;;6321190;28;20099;-67
2023/01/11 15:12:44;;;;;;;0.30;0.30;;;19.20;55.40;;;;;;6321005;28;20039;-67
2023/01/11 15:19:32;;;;;;;0.70;0.40;;;19.30;55.50;;;;;;6321200;28;20032;-67
2023/01/11 15:22:33;;;;;;;0.90;0.38;;;19.30;55.50;;;;;;6320700;28;20125;-67
2023/01/11 15:25:35;;;;;;;0.40;0.20;;;19.30;55.50;;;;;;6321079;28;20479;-64
2023/01/11 15:28:54;;;;;;;0.65;0.40;;;19.30;55.50;;;;;;6303254;28;20036;-64
2023/01/11 15:32:00;;;;;;;0.60;0.43;;;19.30;55.50;;;;;;6320927;28;20012;-64
2023/01/11 15:35:23;;;;;;;0.38;0.28;;;19.30;55.60;;;;;;6320828;28;20059;-64
2023/01/11 15:39:01;;;;;;;0.50;0.38;;;19.30;55.40;;;;;;6321200;28;20028;-64
2023/01/11 15:42:36;;;;;;;0.52;0.30;;;19.30;55.50;;;;;;6303071;28;20024;-67
2023/01/11 15:46:51;;;;;;;0.25;0.22;;;19.30;55.60;;;;;;6320529;28;20028;-64
2023/01/11 15:49:33;;;;;;;0.40;0.30;;;19.30;55.60;;;;;;6320721;28;20485;-64
2023/01/11 15:53:14;;;;;;;0.30;0.20;;;19.30;55.60;;;;;;6319683;28;20016;-64
2023/01/11 15:56:33;;;;;;;0.40;0.32;;;19.20;55.50;;;;;;6321001;28;20032;-64
2023/01/11 15:59:55;;;;;;;0.47;0.20;;;19.20;55.50;;;;;;6320770;28;20420;-64
2023/01/11 16:03:49;;;;;;;0.47;0.38;;;19.20;55.50;;;;;;6320383;28;20032;-67
2023/01/11 16:06:57;;;;;;;0.47;0.30;;;19.30;55.60;;;;;;6231498;28;20037;-66
2023/01/11 16:10:36;;;;;;;0.50;0.30;;;19.30;55.60;;;;;;6320576;28;20048;-67
2023/01/11 16:13:37;;;;;;;0.40;0.32;;;19.30;55.60;;;;;;6301142;28;20032;-64
2023/01/11 16:16:41;;;;;;;0.45;0.30;;;19.20;55.50;;;;;;6325531;28;20016;-64
2023/01/11 16:19:43;;;;;;;0.37;0.33;;;19.20;55.40;;;;;;6325649;28;20024;-64
2023/01/11 16:22:50;;;;;;;0.50;0.40;;;19.20;55.50;;;;;;6325139;28;20699;-64
2023/01/11 16:25:55;;;;;;;0.20;0.20;;;19.20;55.50;;;;;;6324949;28;20024;-64
2023/01/11 16:28:56;;;;;;;;;;;19.30;55.60;;;;;;6325729;28;20031;-64
2023/01/11 16:32:17;;;;;;;0.47;0.38;;;19.30;55.60;;;;;;6324815;28;19904;-64
2023/01/11 16:35:24;;;;;;;0.40;0.30;;;19.30;55.60;;;;;;6324771;28;20016;-66
2023/01/11 16:38:26;;;;;;;0.35;0.30;;;19.30;55.60;;;;;;6325399;28;20092;-64
2023/01/11 16:41:59;;;;;;;0.82;0.50;;;19.20;55.60;;;;;;6324507;28;20031;-64
2023/01/11 16:45:03;;;;;;;0.20;0.20;;;19.30;55.60;;;;;;6307484;28;20040;-64
2023/01/11 16:48:14;;;;;;;0.85;0.50;;;19.20;55.50;;;;;;6324592;28;20064;-64
2023/01/11 16:51:20;;;;;;;0.63;0.30;;;19.20;55.50;;;;;;6324383;28;20024;-64
2023/01/11 16:54:27;;;;;;;0.20;0.20;;;19.30;55.60;;;;;;6324430;28;20012;-64
2023/01/11 16:57:42;;;;;;;0.22;0.22;;;19.20;55.60;;;;;;6324556;28;20024;-64
2023/01/11 17:00:57;;;;;;;0.68;0.40;;;19.30;55.60;;;;;;6324200;28;20032;-64